createdAt,value
2023-03-03T15:33:00.505Z,23.70
2023-03-03T15:36:04.630Z,16.40
2023-03-03T15:42:16.117Z,16.10
2023-03-03T15:45:04.269Z,18.00
2023-03-03T15:48:08.678Z,19.20
2023-03-03T15:51:00.231Z,20.40
2023-03-03T15:54:04.432Z,16.80
2023-03-03T15:57:14.883Z,21.50
2023-03-03T16:00:17.986Z,21.40
2023-03-03T16:03:27.720Z,22.50
2023-03-03T16:06:24.155Z,21.60
2023-03-03T16:09:16.608Z,21.40
2023-03-03T16:12:30.145Z,23.70
2023-03-03T16:15:25.649Z,20.40
2023-03-03T16:18:27.925Z,15.40
2023-03-03T16:21:20.247Z,17.10
2023-03-03T16:24:49.807Z,21.30
2023-03-03T16:27:53.699Z,21.80
2023-03-03T16:30:53.300Z,21.10
2023-03-03T16:34:14.519Z,22.00
2023-03-03T16:37:13.624Z,19.40
2023-03-03T16:40:17.232Z,15.80
2023-03-03T16:43:40.679Z,14.20
2023-03-03T16:46:34.597Z,23.00
2023-03-03T16:49:37.048Z,18.80
2023-03-03T16:52:26.732Z,20.00
2023-03-03T16:55:21.946Z,23.90
2023-03-03T16:58:16.014Z,20.80
2023-03-03T17:01:23.331Z,10.30
2023-03-03T17:04:21.636Z,17.40
2023-03-03T17:07:18.014Z,14.00
2023-03-03T17:10:31.313Z,18.20
2023-03-03T17:13:53.493Z,13.40
2023-03-03T17:16:53.003Z,13.70
2023-03-03T17:19:43.810Z,15.20
2023-03-03T17:22:34.804Z,16.70
2023-03-03T17:25:23.840Z,15.00
2023-03-03T17:28:35.876Z,14.60
2023-03-03T17:31:31.086Z,21.40
2023-03-03T17:34:22.040Z,19.00
2023-03-03T17:37:37.480Z,17.80
2023-03-03T17:40:49.282Z,15.60
2023-03-03T17:43:46.116Z,17.10
2023-03-03T17:46:48.479Z,19.80
2023-03-03T17:49:53.529Z,20.10
2023-03-03T17:53:21.103Z,17.10
2023-03-03T17:56:20.096Z,13.90
2023-03-03T17:59:27.505Z,14.80
2023-03-03T18:02:21.881Z,15.50
2023-03-03T18:05:31.725Z,19.00
2023-03-03T18:08:42.429Z,21.80
2023-03-03T18:11:41.138Z,26.90
2023-03-03T18:14:39.362Z,32.90
2023-03-03T18:17:34.987Z,18.80
2023-03-03T18:20:32.130Z,7.70
2023-03-03T18:26:49.377Z,21.30
2023-03-03T18:29:34.873Z,28.10
2023-03-03T18:32:22.431Z,25.60
2023-03-03T18:35:32.813Z,31.40
2023-03-03T18:38:26.732Z,24.20
2023-03-03T18:44:24.989Z,33.00
2023-03-03T18:47:10.814Z,46.50
2023-03-03T18:50:03.332Z,45.90
2023-03-03T18:53:13.921Z,31.10
2023-03-03T18:56:00.724Z,19.60
2023-03-03T18:58:46.110Z,33.40
2023-03-03T19:01:31.947Z,28.90
2023-03-03T19:04:20.794Z,29.50
2023-03-03T19:07:26.222Z,29.60
2023-03-03T19:10:21.216Z,30.40
2023-03-03T19:13:47.433Z,31.20
2023-03-03T19:16:37.319Z,35.40
2023-03-03T19:19:32.740Z,36.70
2023-03-03T19:22:25.780Z,50.20
2023-03-03T19:25:28.881Z,37.00
2023-03-03T19:28:38.724Z,33.90
2023-03-03T19:31:33.178Z,24.90
2023-03-03T19:34:25.576Z,19.30
2023-03-03T19:38:05.419Z,40.00
2023-03-03T19:41:08.975Z,34.70
2023-03-03T19:44:24.722Z,32.90
2023-03-03T19:47:28.731Z,37.20
2023-03-03T19:50:23.946Z,35.10
2023-03-03T19:53:31.128Z,33.90
2023-03-03T19:56:59.214Z,51.40
2023-03-03T20:00:10.184Z,57.50
2023-03-03T20:06:17.335Z,25.60
2023-03-03T20:09:15.566Z,34.00
2023-03-03T20:12:32.185Z,38.90
2023-03-03T20:15:23.813Z,34.30
2023-03-03T20:18:21.666Z,39.90
2023-03-03T20:21:21.713Z,43.50
2023-03-03T20:24:30.512Z,45.70
2023-03-03T20:27:45.889Z,44.80
2023-03-03T20:30:57.703Z,39.60
2023-03-03T20:33:57.914Z,56.00
2023-03-03T20:36:49.558Z,44.40
2023-03-03T20:39:58.570Z,47.20
2023-03-03T20:43:16.321Z,32.10
2023-03-03T20:46:08.463Z,33.80
2023-03-03T20:49:21.369Z,38.80
2023-03-03T20:52:31.635Z,34.50
2023-03-03T20:55:45.980Z,32.80
2023-03-03T20:58:49.483Z,29.80
2023-03-03T21:01:57.282Z,30.70
2023-03-03T21:04:43.892Z,31.00
2023-03-03T21:07:29.081Z,32.90
2023-03-03T21:10:24.870Z,36.50
2023-03-03T21:13:41.109Z,33.30
2023-03-03T21:16:26.487Z,22.00
2023-03-03T21:19:14.194Z,34.70
2023-03-03T21:22:02.366Z,35.50
2023-03-03T21:25:00.003Z,38.40
2023-03-03T21:27:45.659Z,33.50
2023-03-03T21:30:31.369Z,33.50
2023-03-03T21:36:36.209Z,24.00
2023-03-03T21:42:20.597Z,24.20
2023-03-03T21:45:11.803Z,34.20
2023-03-03T21:48:02.603Z,54.70
2023-03-03T21:50:52.809Z,44.70
2023-03-03T21:53:38.349Z,42.90
2023-03-03T21:56:23.960Z,28.90
2023-03-03T21:59:10.019Z,30.10
2023-03-03T22:01:55.441Z,35.10
2023-03-03T22:04:43.865Z,35.70
2023-03-03T22:07:29.469Z,31.00
2023-03-03T22:13:00.421Z,25.70
2023-03-03T22:15:58.585Z,32.40
2023-03-03T22:21:31.834Z,28.40
2023-03-03T22:24:17.619Z,42.40
2023-03-03T22:27:03.769Z,20.00
2023-03-03T22:29:49.490Z,24.70
2023-03-03T22:32:35.318Z,33.10
2023-03-03T22:35:21.190Z,29.30
2023-03-03T22:38:06.636Z,29.40
2023-03-03T22:40:58.579Z,26.40
2023-03-03T22:43:43.939Z,18.40
2023-03-03T22:49:14.390Z,28.60
2023-03-03T22:52:06.232Z,18.40
2023-03-03T22:54:51.811Z,18.50
2023-03-03T22:57:37.277Z,23.30
2023-03-03T23:00:23.069Z,24.30
2023-03-03T23:03:11.041Z,24.50
2023-03-03T23:05:56.580Z,24.60
2023-03-03T23:08:42.326Z,22.80
2023-03-03T23:11:27.998Z,20.30
2023-03-03T23:14:13.729Z,25.00
2023-03-03T23:16:59.307Z,16.50
2023-03-03T23:19:48.785Z,21.30
2023-03-03T23:22:34.369Z,16.10
2023-03-03T23:28:07.798Z,22.80
2023-03-03T23:30:52.868Z,22.10
2023-03-03T23:33:38.246Z,19.10
2023-03-03T23:36:25.974Z,18.40
2023-03-03T23:39:12.175Z,17.40
2023-03-03T23:41:57.994Z,17.20
2023-03-03T23:44:43.584Z,18.80
2023-03-03T23:47:31.272Z,25.30
2023-03-03T23:50:16.651Z,19.90
2023-03-03T23:53:05.825Z,15.90
2023-03-03T23:55:51.193Z,12.80
2023-03-03T23:58:36.623Z,16.50
